• Join FlightAware (Why Join?)
  • Login
  • US Flag 
03:40PM EDT


 

Airport Tracker/Info


-or-


 

Live Flight TrackerFlight Track Log ✈ UPS1121 ✈ 06-May-2013 ✈ KBDL - KPHL

Flight Track Log - Related Links

Times and Time Zones

All times are in EDT time to prevent confusion due to time zone crossing. See the UPS1121 flight status page for this flight to view local times or setup timezone preferences in your user account.

Time Position Orientation Groundspeed Altitude Reporting Facility
EDT Latitude Longitude Course Direction KTS MPH feet Rate Location/Type
09:58PM 41.9311 -72.7025 225° Southwest 131 151 1,200  Level Boston Center
09:59PM 41.9167 -72.7219 225° Southwest 159 183 2,100 2,820 Climbing Boston Center
10:00PM 41.8872 -72.7664 228° Southwest 210 242 4,600 2,700 Climbing Boston Center
10:01PM 41.8269 -72.7494 168° South 190 219 7,000 2,160 Climbing Boston Center
10:07PM 41.3180 -72.5940 168° South 404 465 20,100 1,920 Climbing FlightAware
10:07PM 41.2520 -72.6290 202° Southwest 400 460 20,000 -120 Descending FlightAware
10:08PM 41.1970 -72.6590 202° Southwest 400 460 20,000  Level FlightAware
10:09PM 41.0990 -72.7180 204° Southwest 402 463 20,000  Level FlightAware
10:09PM 41.0310 -72.7660 208° Southwest 402 463 20,000  Level FlightAware
10:10PM 40.9650 -72.8120 208° Southwest 402 463 20,000  Level FlightAware
10:10PM 40.9401 -72.8292 208° Southwest 402 463 20,000  Level FlightAware ADS-B
10:11PM 40.8848 -72.8678 208° Southwest 402 463 20,000  Level FlightAware ADS-B
10:11PM 40.8328 -72.9041 208° Southwest 402 463 20,000  Level FlightAware ADS-B
10:12PM 40.7801 -72.9407 208° Southwest 402 463 20,000  Level FlightAware ADS-B
10:12PM 40.7250 -72.9790 208° Southwest 402 463 20,000  Level FlightAware ADS-B
10:13PM 40.6749 -73.0138 208° Southwest 403 464 20,000  Level FlightAware ADS-B
10:13PM 40.6241 -73.0489 208° Southwest 401 461 20,000  Level FlightAware ADS-B
10:14PM 40.5727 -73.0843 208° Southwest 400 460 20,000  Level FlightAware ADS-B
10:14PM 40.5224 -73.1189 208° Southwest 400 460 20,000  Level FlightAware ADS-B
10:15PM 40.4712 -73.1540 208° Southwest 399 459 20,000  Level FlightAware ADS-B
10:16PM 40.4222 -73.1876 208° Southwest 398 458 20,000  Level FlightAware ADS-B
10:16PM 40.3703 -73.2231 208° Southwest 396 456 20,000  Level FlightAware ADS-B
10:17PM 40.3201 -73.2575 208° Southwest 396 456 20,000  Level FlightAware ADS-B
10:17PM 40.2710 -73.2910 208° Southwest 395 455 20,000  Level FlightAware ADS-B
10:18PM 40.2190 -73.3265 208° Southwest 395 455 20,000  Level FlightAware ADS-B
10:18PM 40.1690 -73.3605 207° Southwest 395 455 20,000  Level FlightAware ADS-B
10:19PM 40.1174 -73.3955 207° Southwest 395 455 20,000  Level FlightAware ADS-B
10:19PM 40.0658 -73.4305 207° Southwest 394 453 20,000  Level FlightAware ADS-B
10:20PM 40.0087 -73.4691 207° Southwest 394 453 20,000  Level FlightAware ADS-B
10:20PM 39.9600 -73.5020 207° Southwest 394 453 20,000  Level FlightAware ADS-B
10:21PM 39.9296 -73.5229 208° Southwest 394 453 20,000  Level FlightAware ADS-B
10:21PM 39.9173 -73.5330 212° Southwest 394 453 20,000  Level FlightAware ADS-B
10:21PM 39.9021 -73.5479 217° Southwest 395 455 20,000  Level FlightAware ADS-B
10:21PM 39.8871 -73.5661 223° Southwest 397 457 20,000  Level FlightAware ADS-B
10:22PM 39.8510 -73.6219 230° Southwest 396 456 20,000  Level FlightAware ADS-B
10:22PM 39.8159 -73.6780 231° Southwest 395 455 20,000  Level FlightAware ADS-B
10:23PM 39.7808 -73.7339 231° Southwest 395 455 20,000  Level FlightAware ADS-B
10:23PM 39.7455 -73.7900 231° Southwest 395 455 20,000 -120 Level FlightAware ADS-B
10:24PM 39.7106 -73.8453 231° Southwest 392 451 19,900 -900 Descending FlightAware ADS-B
10:24PM 39.6764 -73.8992 231° Southwest 384 442 19,100 -2,040 Descending FlightAware ADS-B
10:25PM 39.6426 -73.9525 231° Southwest 379 436 17,900 -2,580 Descending FlightAware ADS-B
10:25PM 39.6075 -74.0076 230° Southwest 378 435 16,500 -2,340 Descending FlightAware ADS-B
10:26PM 39.5744 -74.0594 230° Southwest 371 427 15,500 -2,160 Descending FlightAware ADS-B
10:26PM 39.5459 -74.1044 231° Southwest 366 421 14,500 -2,280 Descending FlightAware ADS-B
10:26PM 39.5404 -74.1149 236° Southwest 366 421 14,300 -2,040 Descending FlightAware ADS-B
10:26PM 39.5331 -74.1336 243° Southwest 366 421 14,000 -1,440 Descending FlightAware ADS-B
10:26PM 39.5308 -74.1414 249° West 366 421 14,000 -720 Level FlightAware ADS-B
10:27PM 39.5258 -74.1709 258° West 367 422 13,800 -600 Descending FlightAware ADS-B
10:27PM 39.5252 -74.1862 267° West 367 422 13,800  Level FlightAware ADS-B
10:27PM 39.5257 -74.2392 271° West 371 427 13,800 -120 Level FlightAware ADS-B
10:28PM 39.5274 -74.3066 272° West 373 429 13,700 -900 Descending FlightAware ADS-B
10:28PM 39.5288 -74.3743 272° West 361 415 12,900 -1,860 Descending FlightAware ADS-B
10:29PM 39.5300 -74.4485 271° West 355 409 11,700 -1,980 Descending FlightAware ADS-B
10:29PM 39.5306 -74.5170 271° West 350 403 10,700 -1,500 Descending FlightAware ADS-B
10:30PM 39.5311 -74.5783 271° West 329 379 10,200 -780 Descending FlightAware ADS-B
10:30PM 39.5316 -74.6303 271° West 307 353 10,000 -600 Descending FlightAware ADS-B
10:30PM 39.5320 -74.6594 271° West 298 343 9,800 -1,080 Descending FlightAware ADS-B
10:31PM 39.5324 -74.6915 271° West 293 337 9,400 -1,500 Descending FlightAware ADS-B
10:31PM 39.5329 -74.7184 271° West 291 335 9,000 -1,200 Descending FlightAware ADS-B
10:31PM 39.5333 -74.7463 271° West 291 335 8,800 -420 Descending FlightAware ADS-B
10:32PM 39.5338 -74.7726 271° West 291 335 8,800  Level FlightAware ADS-B
10:32PM 39.5343 -74.7999 271° West 289 333 8,800  Level FlightAware ADS-B
10:32PM 39.5348 -74.8221 272° West 288 331 8,800  Level FlightAware ADS-B
10:32PM 39.5353 -74.8493 271° West 288 331 8,800 -420 Level FlightAware ADS-B
10:33PM 39.5357 -74.8756 271° West 286 329 8,600 -1,020 Descending FlightAware ADS-B
10:33PM 39.5361 -74.9021 271° West 285 328 8,300 -1,440 Descending FlightAware ADS-B
10:33PM 39.5365 -74.9278 271° West 285 328 7,900 -1,440 Descending FlightAware ADS-B
10:33PM 39.5370 -74.9532 271° West 285 328 7,600 -1,620 Descending FlightAware ADS-B
10:33PM 39.5375 -74.9676 273° West 285 328 7,300 -1,740 Descending FlightAware ADS-B
10:34PM 39.5390 -74.9893 275° West 288 331 7,000 -1,560 Descending FlightAware ADS-B
10:34PM 39.5421 -75.0208 277° West 289 333 6,500 -1,560 Descending FlightAware ADS-B
10:34PM 39.5458 -75.0573 278° West 289 333 6,000 -1,140 Descending FlightAware ADS-B
10:35PM 39.5484 -75.0856 277° West 288 331 5,800 -420 Descending FlightAware ADS-B
10:35PM 39.5506 -75.1133 276° West 289 333 5,800 -240 Level FlightAware ADS-B
10:35PM 39.5525 -75.1405 275° West 286 329 5,700 -840 Descending FlightAware ADS-B
10:35PM 39.5543 -75.1664 275° West 284 327 5,400 -1,260 Descending FlightAware ADS-B
10:36PM 39.5572 -75.2069 275° West 285 328 4,900 -1,380 Descending FlightAware ADS-B
10:36PM 39.5591 -75.2331 275° West 285 328 4,500 -1,380 Descending FlightAware ADS-B
10:36PM 39.5609 -75.2592 275° West 282 325 4,200 -1,320 Descending FlightAware ADS-B
10:36PM 39.5615 -75.2653 277° West 284 327 4,100 -1,380 Descending FlightAware ADS-B
10:36PM 39.5627 -75.2737 281° West 284 327 4,000 -1,200 Descending FlightAware ADS-B
10:37PM 39.5646 -75.2816 287° West 285 328 3,900 -1,500 Descending FlightAware ADS-B
10:37PM 39.5661 -75.2863 292° West 285 328 3,800 -1,740 Descending FlightAware ADS-B
10:37PM 39.5688 -75.2923 300° West 285 328 3,700 -1,500 Descending FlightAware ADS-B
10:37PM 39.5719 -75.2979 306° West 285 328 3,600 -1,740 Descending FlightAware ADS-B
10:37PM 39.5746 -75.3016 313° West 284 327 3,500 -900 Descending FlightAware ADS-B
10:37PM 39.5788 -75.3063 319° Northwest 282 325 3,500 -900 Level FlightAware ADS-B
10:37PM 39.5825 -75.3096 325° Northwest 281 323 3,400 -1,740 Descending FlightAware ADS-B
10:37PM 39.5870 -75.3130 330° Northwest 280 322 3,300 -1,500 Descending FlightAware ADS-B
10:37PM 39.5910 -75.3155 334° Northwest 279 321 3,200 -1,320 Descending FlightAware ADS-B
10:37PM 39.6090 -75.3257 336° Northwest 279 321 2,900 -1,200 Descending FlightAware ADS-B
10:37PM 39.6268 -75.3356 337° Northwest 278 320 2,600 -1,200 Descending FlightAware ADS-B
10:38PM 39.6450 -75.3456 337° Northwest 276 318 2,300 -1,080 Descending FlightAware ADS-B
10:38PM 39.6600 -75.3538 337° Northwest 274 315 2,100 -1,080 Descending FlightAware ADS-B
10:38PM 39.6776 -75.3631 338° Northwest 273 314 1,800 -600 Descending FlightAware ADS-B
10:38PM 39.6975 -75.3740 337° Northwest 275 316 1,800  Level FlightAware ADS-B
10:39PM 39.7154 -75.3839 337° Northwest 272 313 1,800  Level FlightAware ADS-B
10:39PM 39.7329 -75.3937 337° Northwest 270 311 1,800  Level FlightAware ADS-B
10:39PM 39.7449 -75.4004 337° Northwest 271 312 1,800  Level FlightAware ADS-B
10:39PM 39.7632 -75.4105 337° Northwest 269 310 1,800  Level FlightAware ADS-B
10:40PM 39.7798 -75.4199 336° Northwest 256 295 1,800  Level FlightAware ADS-B
10:40PM 39.7882 -75.4246 337° Northwest 249 287 1,800  Level FlightAware ADS-B
10:40PM 39.7918 -75.4263 340° North 245 282 1,800  Level FlightAware ADS-B
10:40PM 39.7961 -75.4279 344° North 241 277 1,800  Level FlightAware ADS-B
10:40PM 39.7996 -75.4285 352° North 236 272 1,800  Level FlightAware ADS-B
10:40PM 39.8029 -75.4288 356° North 232 267 1,800  Level FlightAware ADS-B
10:40PM 39.8066 -75.4283 North 225 259 1,800  Level FlightAware ADS-B
10:40PM 39.8096 -75.4275 12° North 221 254 1,800  Level FlightAware ADS-B
10:40PM 39.8125 -75.4263 18° North 216 249 1,800  Level FlightAware ADS-B